createdAt,value
2019-05-06T00:01:49.374Z,100922.52
2019-05-06T00:04:21.238Z,100920.98
2019-05-06T00:06:54.787Z,100919.65
2019-05-06T00:09:26.684Z,100921.63
2019-05-06T00:11:58.556Z,100920.92
2019-05-06T00:14:30.422Z,100918.72
2019-05-06T00:17:03.856Z,100917.05
2019-05-06T00:19:35.948Z,100920.37
2019-05-06T00:22:07.854Z,100925.05
2019-05-06T00:24:46.032Z,100917.45
2019-05-06T00:27:27.175Z,100915.52
2019-05-06T00:29:59.059Z,100912.80
2019-05-06T00:32:31.961Z,100915.52
2019-05-06T00:35:04.554Z,100912.55
2019-05-06T00:37:36.566Z,100913.38
2019-05-06T00:40:17.921Z,100921.11
2019-05-06T00:43:04.679Z,100915.19
2019-05-06T00:45:36.058Z,100913.77
2019-05-06T00:48:07.960Z,100916.94
2019-05-06T00:50:39.775Z,100917.83
2019-05-06T00:53:14.175Z,100922.76
2019-05-06T00:55:46.130Z,100914.42
2019-05-06T00:58:17.929Z,100919.98
2019-05-06T01:00:49.786Z,100918.16
2019-05-06T01:03:23.648Z,100923.48
2019-05-06T01:05:55.520Z,100918.11
2019-05-06T01:08:27.931Z,100923.83
2019-05-06T01:10:59.814Z,100925.30
2019-05-06T01:14:05.682Z,100924.77
2019-05-06T01:16:37.890Z,100925.48
2019-05-06T01:19:10.912Z,100926.90
2019-05-06T01:21:44.699Z,100926.41
2019-05-06T01:24:16.742Z,100926.81
2019-05-06T01:26:49.520Z,100922.02
2019-05-06T01:29:21.418Z,100928.09
2019-05-06T01:31:54.451Z,100924.82
2019-05-06T01:34:26.474Z,100923.45
2019-05-06T01:36:58.352Z,100923.05
2019-05-06T01:39:53.762Z,100927.71
2019-05-06T01:42:36.115Z,100924.42
2019-05-06T01:45:09.007Z,100928.33
2019-05-06T01:47:40.918Z,100929.58
2019-05-06T01:50:14.018Z,100925.45
2019-05-06T01:52:46.184Z,100924.80
2019-05-06T01:55:18.067Z,100931.63
2019-05-06T01:57:49.957Z,100929.50
2019-05-06T02:00:23.696Z,100927.16
2019-05-06T02:02:55.592Z,100934.97
2019-05-06T02:05:27.493Z,100929.10
2019-05-06T02:07:59.304Z,100926.17
2019-05-06T02:10:31.178Z,100931.55
2019-05-06T02:13:03.867Z,100920.41
2019-05-06T02:15:36.963Z,100923.25
2019-05-06T02:18:09.061Z,100918.77
2019-05-06T02:20:44.523Z,100923.96
2019-05-06T02:23:20.252Z,100919.78
2019-05-06T02:26:01.063Z,100926.17
2019-05-06T02:28:34.462Z,100920.58
2019-05-06T02:31:25.862Z,100924.49
2019-05-06T02:34:25.860Z,100927.11
2019-05-06T02:37:16.660Z,100923.16
2019-05-06T02:39:48.532Z,100920.72
2019-05-06T02:42:20.339Z,100921.47
2019-05-06T02:44:54.163Z,100914.86
2019-05-06T02:47:47.725Z,100921.73
2019-05-06T02:50:23.923Z,100919.47
2019-05-06T02:52:55.939Z,100915.27
2019-05-06T02:55:27.742Z,100919.52
2019-05-06T02:58:02.665Z,100921.52
2019-05-06T03:00:33.163Z,100921.52
2019-05-06T03:03:05.069Z,100924.53
2019-05-06T03:05:36.946Z,100921.73
2019-05-06T03:08:08.926Z,100921.87
2019-05-06T03:10:43.830Z,100920.63
2019-05-06T03:13:14.686Z,100922.45
2019-05-06T03:15:46.546Z,100922.41
2019-05-06T03:18:18.423Z,100922.41
2019-05-06T03:21:07.690Z,100923.95
2019-05-06T03:23:43.781Z,100926.27
2019-05-06T03:26:16.886Z,100926.53
2019-05-06T03:28:48.978Z,100932.12
2019-05-06T03:31:25.247Z,100933.00
2019-05-06T03:34:16.048Z,100938.73
2019-05-06T03:36:39.202Z,100933.45
2019-05-06T03:39:03.163Z,100927.45
2019-05-06T03:41:36.621Z,100926.74
2019-05-06T03:44:08.513Z,100927.06
2019-05-06T03:46:57.690Z,100930.84
2019-05-06T03:49:33.898Z,100934.65
2019-05-06T03:52:05.081Z,100937.00
2019-05-06T03:54:37.053Z,100935.58
2019-05-06T03:57:09.077Z,100931.86
2019-05-06T03:59:43.603Z,100937.05
2019-05-06T04:02:16.107Z,100933.19
2019-05-06T04:04:47.986Z,100934.84
2019-05-06T04:07:23.132Z,100933.32
2019-05-06T04:09:53.993Z,100935.77
2019-05-06T04:12:26.270Z,100935.09
2019-05-06T04:14:58.151Z,100944.60
2019-05-06T04:17:43.891Z,100945.27
2019-05-06T04:20:34.275Z,100945.75
2019-05-06T04:23:14.436Z,100941.27
2019-05-06T04:25:57.969Z,100937.45
2019-05-06T04:28:34.196Z,100939.84
2019-05-06T04:31:06.502Z,100943.39
2019-05-06T04:33:38.461Z,100944.41
2019-05-06T04:36:12.988Z,100943.96
2019-05-06T04:38:44.040Z,100944.27
2019-05-06T04:41:15.945Z,100933.73
2019-05-06T04:43:47.774Z,100936.28
2019-05-06T04:46:19.739Z,100945.47
2019-05-06T04:48:53.801Z,100932.91
2019-05-06T04:51:25.507Z,100935.45
2019-05-06T04:53:58.287Z,100946.68
2019-05-06T04:56:33.238Z,100938.77
2019-05-06T04:59:06.296Z,100942.14
2019-05-06T05:01:39.307Z,100936.17
2019-05-06T05:04:26.900Z,100941.89
2019-05-06T05:06:45.754Z,100947.23
2019-05-06T05:09:17.712Z,100940.81
2019-05-06T05:11:56.975Z,100938.10
2019-05-06T05:14:45.805Z,100937.26
2019-05-06T05:17:37.838Z,100939.39
2019-05-06T05:20:12.673Z,100941.02
2019-05-06T05:22:47.870Z,100944.11
2019-05-06T05:25:19.712Z,100944.80
2019-05-06T05:27:52.851Z,100946.31
2019-05-06T05:30:25.716Z,100942.98
2019-05-06T05:32:57.581Z,100937.39
2019-05-06T05:35:29.640Z,100942.42
2019-05-06T05:38:03.058Z,100936.73
2019-05-06T05:40:34.981Z,100942.83
2019-05-06T05:43:22.872Z,100940.68
2019-05-06T05:45:55.811Z,100941.37
2019-05-06T05:48:43.571Z,100938.72
2019-05-06T05:51:15.423Z,100938.67
2019-05-06T05:53:47.219Z,100946.00
2019-05-06T05:56:19.009Z,100936.69
2019-05-06T05:58:53.269Z,100940.19
2019-05-06T06:01:25.470Z,100938.68
2019-05-06T06:03:57.431Z,100942.37
2019-05-06T06:06:29.285Z,100948.36
2019-05-06T06:09:03.050Z,100938.89
2019-05-06T06:11:45.767Z,100941.26
2019-05-06T06:14:56.019Z,100940.91
2019-05-06T06:17:48.062Z,100947.27
2019-05-06T06:20:37.581Z,100943.88
2019-05-06T06:23:15.319Z,100944.81
2019-05-06T06:25:47.211Z,100940.44
2019-05-06T06:28:18.979Z,100934.34
2019-05-06T06:30:58.008Z,100933.22
2019-05-06T06:33:30.768Z,100937.72
2019-05-06T06:36:12.263Z,100936.93
2019-05-06T06:39:08.102Z,100930.34
2019-05-06T06:41:42.244Z,100933.02
2019-05-06T06:44:17.974Z,100929.53
2019-05-06T06:46:52.398Z,100937.38
2019-05-06T06:49:24.532Z,100928.23
2019-05-06T06:51:56.431Z,100935.13
2019-05-06T06:54:28.368Z,100932.56
2019-05-06T06:57:12.603Z,100931.28
2019-05-06T07:00:09.562Z,100931.17
2019-05-06T07:02:52.509Z,100923.16
2019-05-06T07:05:42.323Z,100928.31
2019-05-06T07:08:15.353Z,100923.38
2019-05-06T07:10:47.207Z,100922.71
2019-05-06T07:13:19.272Z,100928.91
2019-05-06T07:15:52.695Z,100930.39
2019-05-06T07:18:25.016Z,100929.89
2019-05-06T07:21:34.088Z,100930.77
2019-05-06T07:24:05.063Z,100930.39
2019-05-06T07:26:48.337Z,100928.13
2019-05-06T07:29:25.732Z,100931.25
2019-05-06T07:31:53.706Z,100923.86
2019-05-06T07:34:26.680Z,100930.00
2019-05-06T07:36:58.797Z,100930.17
2019-05-06T07:39:33.191Z,100929.08
2019-05-06T07:42:07.983Z,100926.02
2019-05-06T07:44:52.901Z,100929.46
2019-05-06T07:47:37.150Z,100929.04
2019-05-06T07:50:10.114Z,100925.59
2019-05-06T07:52:44.677Z,100925.59
2019-05-06T07:55:16.578Z,100925.76
2019-05-06T07:57:50.613Z,100931.02
2019-05-06T08:00:23.000Z,100934.28
2019-05-06T08:02:54.992Z,100929.18
2019-05-06T08:05:26.854Z,100934.99
2019-05-06T08:07:58.727Z,100928.47
2019-05-06T08:10:32.906Z,100932.23
2019-05-06T08:13:04.262Z,100931.45
2019-05-06T08:15:36.159Z,100929.75
2019-05-06T08:18:08.584Z,100935.34
2019-05-06T08:20:42.641Z,100929.92
2019-05-06T08:23:35.732Z,100928.75
2019-05-06T08:26:12.823Z,100924.87
2019-05-06T08:28:44.493Z,100926.74
2019-05-06T08:31:17.209Z,100922.91
2019-05-06T08:33:49.077Z,100928.08
2019-05-06T08:36:28.393Z,100922.02
2019-05-06T08:39:02.446Z,100925.44
2019-05-06T08:41:35.424Z,100921.56
2019-05-06T08:44:07.407Z,100921.47
2019-05-06T08:46:39.398Z,100928.12
2019-05-06T08:49:12.316Z,100931.70
2019-05-06T08:51:54.316Z,100924.36
2019-05-06T08:54:39.719Z,100927.16
2019-05-06T08:57:11.976Z,100924.77
2019-05-06T08:59:43.865Z,100927.45
2019-05-06T09:02:16.325Z,100933.05
2019-05-06T09:04:48.312Z,100919.50
2019-05-06T09:07:20.201Z,100921.95
2019-05-06T09:09:52.723Z,100924.05
2019-05-06T09:12:24.652Z,100911.32
2019-05-06T09:14:56.542Z,100903.58
2019-05-06T09:17:28.363Z,100910.21
2019-05-06T09:20:02.494Z,100914.48
2019-05-06T09:22:33.830Z,100913.09
2019-05-06T09:25:06.016Z,100904.87
2019-05-06T09:27:52.744Z,100909.16
2019-05-06T09:30:37.532Z,100916.73
2019-05-06T09:33:09.517Z,100906.93
2019-05-06T09:35:42.248Z,100911.52
2019-05-06T09:38:15.274Z,100912.86
2019-05-06T09:40:47.140Z,100910.27
2019-05-06T09:43:19.049Z,100915.05
2019-05-06T09:45:52.932Z,100921.80
2019-05-06T09:48:33.853Z,100914.11
2019-05-06T09:51:05.742Z,100917.62
2019-05-06T09:54:00.245Z,100919.84
2019-05-06T09:56:35.186Z,100917.78
2019-05-06T09:59:07.244Z,100921.61
2019-05-06T10:01:39.435Z,100919.53
2019-05-06T10:04:13.139Z,100922.36
2019-05-06T10:06:56.201Z,100919.88
2019-05-06T10:09:19.880Z,100914.87
2019-05-06T10:11:52.535Z,100915.23
2019-05-06T10:14:25.057Z,100912.53
2019-05-06T10:16:56.967Z,100912.41
2019-05-06T10:19:28.991Z,100904.94
2019-05-06T10:22:03.425Z,100904.91
2019-05-06T10:24:34.459Z,100912.16
2019-05-06T10:27:06.350Z,100906.98
2019-05-06T10:29:57.382Z,100902.92
2019-05-06T10:32:37.601Z,100904.16
2019-05-06T10:35:10.502Z,100905.02
2019-05-06T10:37:56.177Z,100903.28
2019-05-06T10:40:32.909Z,100905.58
2019-05-06T10:43:27.772Z,100914.39
2019-05-06T10:46:01.829Z,100908.80
2019-05-06T10:48:33.267Z,100909.56
2019-05-06T10:51:16.769Z,100917.80
2019-05-06T10:53:46.710Z,100912.99
2019-05-06T10:56:53.800Z,100912.63
2019-05-06T10:59:18.244Z,100912.99
2019-05-06T11:01:51.630Z,100910.08
2019-05-06T11:04:23.524Z,100916.81
2019-05-06T11:06:56.213Z,100920.00
2019-05-06T11:09:28.107Z,100918.42
2019-05-06T11:12:00.038Z,100923.44
2019-05-06T11:14:32.908Z,100932.67
2019-05-06T11:17:05.285Z,100927.77
2019-05-06T11:19:38.215Z,100924.17
2019-05-06T11:22:10.031Z,100918.44
2019-05-06T11:24:42.335Z,100920.77
2019-05-06T11:27:27.469Z,100917.80
2019-05-06T11:29:49.968Z,100922.58
2019-05-06T11:32:44.708Z,100924.45
2019-05-06T11:35:26.167Z,100922.09
2019-05-06T11:38:04.267Z,100919.66
2019-05-06T11:40:36.146Z,100925.53
2019-05-06T11:43:08.023Z,100930.34
2019-05-06T11:45:39.935Z,100929.58
2019-05-06T11:48:14.292Z,100925.91
2019-05-06T11:50:47.162Z,100927.75
2019-05-06T11:53:18.969Z,100923.34
2019-05-06T11:55:54.401Z,100926.16
2019-05-06T11:58:42.974Z,100920.87
2019-05-06T12:01:20.038Z,100929.95
2019-05-06T12:03:52.286Z,100930.30
2019-05-06T12:06:24.211Z,100925.41
2019-05-06T12:08:56.154Z,100926.30
2019-05-06T12:11:28.021Z,100923.94
2019-05-06T12:13:59.918Z,100930.21
2019-05-06T12:16:33.158Z,100922.97
2019-05-06T12:19:05.487Z,100926.65
2019-05-06T12:21:37.572Z,100920.39
2019-05-06T12:24:12.092Z,100919.91
2019-05-06T12:26:43.491Z,100914.50
2019-05-06T12:29:15.506Z,100918.67
2019-05-06T12:31:52.948Z,100915.36
2019-05-06T12:34:24.939Z,100914.63
2019-05-06T12:36:59.509Z,100911.80
2019-05-06T12:39:33.158Z,100908.36
2019-05-06T12:42:12.275Z,100915.09
2019-05-06T12:44:53.029Z,100902.92
2019-05-06T12:47:32.927Z,100904.34
2019-05-06T12:50:06.472Z,100902.09
2019-05-06T12:52:38.358Z,100895.59
2019-05-06T12:55:18.238Z,100896.33
2019-05-06T12:57:43.983Z,100890.72
2019-05-06T13:00:16.415Z,100889.94
2019-05-06T13:02:48.315Z,100895.61
2019-05-06T13:05:20.180Z,100887.84
2019-05-06T13:07:52.786Z,100881.61
2019-05-06T13:10:24.707Z,100881.77
2019-05-06T13:13:04.874Z,100877.63
2019-05-06T13:15:37.018Z,100868.63
2019-05-06T13:18:10.520Z,100868.63
2019-05-06T13:20:50.042Z,100875.84
2019-05-06T13:23:36.746Z,100866.44
2019-05-06T13:26:09.265Z,100880.66
2019-05-06T13:28:44.601Z,100862.80
2019-05-06T13:31:21.318Z,100862.25
2019-05-06T13:33:54.458Z,100861.50
2019-05-06T13:36:26.730Z,100859.52
2019-05-06T13:39:13.279Z,100862.47
2019-05-06T13:41:33.872Z,100858.98
2019-05-06T13:44:32.015Z,100858.98
2019-05-06T13:47:04.720Z,100846.31
2019-05-06T13:49:53.307Z,100856.13
2019-05-06T13:52:26.853Z,100852.75
2019-05-06T13:54:58.662Z,100846.42
2019-05-06T13:57:32.057Z,100846.42
2019-05-06T14:00:04.473Z,100841.28
2019-05-06T14:02:57.072Z,100836.36
2019-05-06T14:05:28.956Z,100829.34
2019-05-06T14:08:04.166Z,100829.12
2019-05-06T14:10:34.509Z,100829.83
2019-05-06T14:13:06.391Z,100833.86
2019-05-06T14:15:38.280Z,100832.86
2019-05-06T14:18:10.359Z,100837.10
2019-05-06T14:20:42.964Z,100830.78
2019-05-06T14:23:14.915Z,100830.78
2019-05-06T14:26:04.407Z,100844.55
2019-05-06T14:28:43.019Z,100843.78
2019-05-06T14:31:33.346Z,100848.66
2019-05-06T14:34:05.214Z,100848.66
2019-05-06T14:36:37.077Z,100840.63
2019-05-06T14:39:15.275Z,100842.52
2019-05-06T14:41:48.900Z,100841.80
2019-05-06T14:44:23.075Z,100844.91
2019-05-06T14:47:02.996Z,100833.87
2019-05-06T14:49:34.871Z,100833.19
2019-05-06T14:52:06.680Z,100833.19
2019-05-06T14:54:53.278Z,100839.88
2019-05-06T14:57:25.260Z,100826.70
2019-05-06T14:59:57.112Z,100837.02
2019-05-06T15:02:29.049Z,100839.12
2019-05-06T15:05:02.941Z,100830.80
2019-05-06T15:07:34.494Z,100845.95
2019-05-06T15:10:19.185Z,100840.78
2019-05-06T15:12:42.662Z,100850.47
2019-05-06T15:15:14.207Z,100845.48
2019-05-06T15:17:46.082Z,100866.20
2019-05-06T15:20:18.966Z,100853.33
2019-05-06T15:22:52.853Z,100845.16
2019-05-06T15:25:24.987Z,100843.13
2019-05-06T15:27:56.877Z,100847.33
2019-05-06T15:30:38.666Z,100840.56
2019-05-06T15:33:13.259Z,100850.72
2019-05-06T15:36:02.567Z,100844.33
2019-05-06T15:38:35.762Z,100850.17
2019-05-06T15:41:08.649Z,100839.33
2019-05-06T15:43:41.526Z,100854.27
2019-05-06T15:46:14.408Z,100854.37
2019-05-06T15:48:47.923Z,100849.23
2019-05-06T15:51:22.336Z,100852.39
2019-05-06T15:53:54.281Z,100858.28
2019-05-06T15:56:27.262Z,100854.42
2019-05-06T15:58:59.187Z,100848.47
2019-05-06T16:01:34.033Z,100844.30
2019-05-06T16:04:05.353Z,100844.20
2019-05-06T16:06:37.250Z,100860.86
2019-05-06T16:09:09.556Z,100869.40
2019-05-06T16:11:44.701Z,100862.56
2019-05-06T16:14:16.336Z,100875.75
2019-05-06T16:16:48.202Z,100858.17
2019-05-06T16:19:22.568Z,100865.20
2019-05-06T16:21:55.153Z,100866.94
2019-05-06T16:24:35.161Z,100869.86
2019-05-06T16:27:06.747Z,100878.27
2019-05-06T16:29:42.651Z,100872.16
2019-05-06T16:32:13.232Z,100871.03
2019-05-06T16:34:45.107Z,100869.17
2019-05-06T16:37:16.983Z,100878.67
2019-05-06T16:39:48.879Z,100870.10
2019-05-06T16:42:22.470Z,100868.61
2019-05-06T16:44:54.491Z,100871.30
2019-05-06T16:47:38.647Z,100866.95
2019-05-06T16:50:13.180Z,100865.62
2019-05-06T16:52:45.900Z,100867.52
2019-05-06T16:55:24.387Z,100869.05
2019-05-06T16:58:04.474Z,100865.14
2019-05-06T17:00:37.740Z,100865.48
2019-05-06T17:03:18.569Z,100872.52
2019-05-06T17:06:09.636Z,100865.19
2019-05-06T17:08:42.477Z,100871.80
2019-05-06T17:11:26.969Z,100875.42
2019-05-06T17:13:48.092Z,100876.20
2019-05-06T17:16:22.022Z,100871.42
2019-05-06T17:18:56.336Z,100878.58
2019-05-06T17:21:27.096Z,100874.41
2019-05-06T17:23:58.975Z,100883.63
2019-05-06T17:26:31.212Z,100880.26
2019-05-06T17:29:37.071Z,100882.05
2019-05-06T17:32:26.709Z,100876.78
2019-05-06T17:34:58.613Z,100878.23
2019-05-06T17:38:07.589Z,100882.75
2019-05-06T17:40:39.580Z,100889.65
2019-05-06T17:43:13.023Z,100896.89
2019-05-06T17:45:59.305Z,100889.41
2019-05-06T17:48:38.813Z,100889.69
2019-05-06T17:51:18.596Z,100889.55
2019-05-06T17:53:52.739Z,100896.57
2019-05-06T17:56:24.687Z,100905.66
2019-05-06T17:58:56.971Z,100904.93
2019-05-06T18:01:34.034Z,100907.61
2019-05-06T18:04:06.410Z,100906.65
2019-05-06T18:06:38.292Z,100904.07
2019-05-06T18:09:12.632Z,100908.73
2019-05-06T18:11:57.783Z,100915.22
2019-05-06T18:14:19.295Z,100907.38
2019-05-06T18:16:53.629Z,100918.44
2019-05-06T18:19:24.714Z,100920.63
2019-05-06T18:21:56.530Z,100918.55
2019-05-06T18:24:28.421Z,100924.77
2019-05-06T18:27:02.478Z,100926.31
2019-05-06T18:29:33.985Z,100931.44
2019-05-06T18:32:05.879Z,100933.99
2019-05-06T18:34:37.687Z,100940.72
2019-05-06T18:37:09.737Z,100943.18
2019-05-06T18:39:42.528Z,100939.83
2019-05-06T18:42:19.844Z,100947.04
2019-05-06T18:44:48.132Z,100946.41
2019-05-06T18:47:20.014Z,100955.57
2019-05-06T18:49:52.461Z,100952.03
2019-05-06T18:52:24.441Z,100953.02
2019-05-06T18:54:56.331Z,100958.78
2019-05-06T18:57:28.164Z,100976.27
2019-05-06T19:00:00.107Z,100970.08
2019-05-06T19:02:31.989Z,100977.09
2019-05-06T19:05:13.056Z,100975.52
2019-05-06T19:07:46.952Z,100975.05
2019-05-06T19:10:22.498Z,100977.62
2019-05-06T19:12:54.335Z,100980.31
2019-05-06T19:15:26.382Z,100982.11
2019-05-06T19:17:58.281Z,100990.98
2019-05-06T19:20:30.214Z,100992.20
2019-05-06T19:23:02.656Z,100990.04
2019-05-06T19:25:34.821Z,100981.70
2019-05-06T19:28:06.770Z,100985.86
2019-05-06T19:30:38.972Z,100984.61
2019-05-06T19:33:12.368Z,100984.07
2019-05-06T19:35:48.492Z,100984.05
2019-05-06T19:38:23.870Z,100988.04
2019-05-06T19:40:54.337Z,100979.75
2019-05-06T19:43:29.882Z,100984.75
2019-05-06T19:46:02.596Z,100982.28
2019-05-06T19:48:35.047Z,100990.89
2019-05-06T19:51:06.978Z,100981.31
2019-05-06T19:53:42.710Z,100980.18
2019-05-06T19:56:14.047Z,100980.59
2019-05-06T19:58:46.073Z,100981.05
2019-05-06T20:01:18.109Z,100980.84
2019-05-06T20:03:52.489Z,100982.91
2019-05-06T20:06:39.808Z,100983.79
2019-05-06T20:09:39.775Z,100984.71
2019-05-06T20:12:18.056Z,100984.71
2019-05-06T20:14:52.469Z,100986.56
2019-05-06T20:17:24.953Z,100991.27
2019-05-06T20:19:56.842Z,100987.70
2019-05-06T20:22:28.707Z,100994.33
2019-05-06T20:25:02.924Z,100986.69
2019-05-06T20:27:34.327Z,100990.42
2019-05-06T20:30:07.135Z,100985.80
2019-05-06T20:32:39.756Z,100990.88
2019-05-06T20:35:13.066Z,100984.62
2019-05-06T20:37:45.078Z,100986.35
2019-05-06T20:40:18.040Z,100990.56
2019-05-06T20:42:51.708Z,100986.05
2019-05-06T20:45:23.613Z,100986.64
2019-05-06T20:47:55.628Z,100986.47
2019-05-06T20:50:28.785Z,100983.32
2019-05-06T20:53:00.686Z,100985.80
2019-05-06T20:55:35.590Z,100983.61
2019-05-06T20:58:07.630Z,100981.30
2019-05-06T21:00:40.042Z,100976.77
2019-05-06T21:03:12.524Z,100986.14
2019-05-06T21:05:46.056Z,100983.23
2019-05-06T21:08:22.106Z,100990.42
2019-05-06T21:10:54.366Z,100985.70
2019-05-06T21:13:31.780Z,100991.38
2019-05-06T21:16:02.306Z,100989.77
2019-05-06T21:18:34.897Z,100992.61
2019-05-06T21:21:07.318Z,100992.28
2019-05-06T21:23:40.248Z,100992.59
2019-05-06T21:26:13.640Z,100994.02
2019-05-06T21:28:46.775Z,100994.84
2019-05-06T21:31:21.386Z,100995.11
2019-05-06T21:33:54.410Z,100993.50
2019-05-06T21:36:26.665Z,100996.51
2019-05-06T21:38:58.539Z,100997.79
2019-05-06T21:41:32.623Z,101001.94
2019-05-06T21:44:03.985Z,101000.03
2019-05-06T21:46:35.857Z,100994.16
2019-05-06T21:49:07.726Z,100990.63
2019-05-06T21:51:39.758Z,100996.20
2019-05-06T21:54:12.627Z,100994.89
2019-05-06T21:56:44.731Z,100991.83
2019-05-06T21:59:16.589Z,100990.98
2019-05-06T22:01:48.608Z,100992.02
2019-05-06T22:04:23.004Z,100990.14
2019-05-06T22:06:55.549Z,100983.63
2019-05-06T22:09:27.356Z,100984.86
2019-05-06T22:11:59.561Z,100986.38
2019-05-06T22:14:32.578Z,100984.48
2019-05-06T22:17:06.306Z,100979.78
2019-05-06T22:19:38.177Z,100987.36
2019-05-06T22:22:12.063Z,100979.80
2019-05-06T22:24:54.962Z,100977.89
2019-05-06T22:27:22.972Z,100974.45
2019-05-06T22:29:54.956Z,100976.30
2019-05-06T22:32:26.896Z,100978.13
2019-05-06T22:34:58.794Z,100977.95
2019-05-06T22:37:30.689Z,100976.30
2019-05-06T22:40:02.595Z,100976.60
2019-05-06T22:42:35.463Z,100973.16
2019-05-06T22:45:07.424Z,100970.86
2019-05-06T22:47:42.089Z,100966.83
2019-05-06T22:50:14.437Z,100968.94
2019-05-06T22:52:46.568Z,100970.28
2019-05-06T22:55:18.456Z,100970.66
2019-05-06T22:57:50.355Z,100966.83
2019-05-06T23:00:23.832Z,100970.11
2019-05-06T23:03:02.798Z,100963.03
2019-05-06T23:05:34.736Z,100966.82
2019-05-06T23:08:06.591Z,100960.99
2019-05-06T23:10:38.497Z,100965.39
2019-05-06T23:13:12.477Z,100972.55
2019-05-06T23:15:43.893Z,100969.95
2019-05-06T23:18:15.781Z,100968.95
2019-05-06T23:20:47.668Z,100969.42
2019-05-06T23:23:22.112Z,100973.03
2019-05-06T23:26:10.342Z,100967.39
2019-05-06T23:28:43.679Z,100971.59
2019-05-06T23:31:15.686Z,100970.17
2019-05-06T23:33:48.475Z,100972.67
2019-05-06T23:36:20.448Z,100970.38
2019-05-06T23:39:27.819Z,100972.26
2019-05-06T23:42:35.196Z,100975.97
2019-05-06T23:45:42.578Z,100973.95
2019-05-06T23:48:51.789Z,100973.28
2019-05-06T23:51:58.812Z,100971.27
2019-05-06T23:55:06.111Z,100976.91
2019-05-06T23:57:36.245Z,100979.14
